sensor_id;sensor_type;location;lat;lon;timestamp;P1;durP1;ratioP1;P2;durP2;ratioP2
56343;SDS011;42245;42.058;24.700;2023-03-21T03:00:30;14.57;;;8.80;;
56343;SDS011;42245;42.058;24.700;2023-03-21T03:02:57;13.48;;;8.70;;
56343;SDS011;42245;42.058;24.700;2023-03-21T03:05:23;16.38;;;8.77;;
56343;SDS011;42245;42.058;24.700;2023-03-21T03:10:42;16.38;;;9.07;;
56343;SDS011;42245;42.058;24.700;2023-03-21T03:16:33;15.77;;;9.13;;
56343;SDS011;42245;42.058;24.700;2023-03-21T03:19:07;13.65;;;8.55;;
56343;SDS011;42245;42.058;24.700;2023-03-21T03:21:41;15.25;;;8.20;;
56343;SDS011;42245;42.058;24.700;2023-03-21T03:24:10;12.55;;;7.38;;
56343;SDS011;42245;42.058;24.700;2023-03-21T03:26:38;14.48;;;8.32;;
56343;SDS011;42245;42.058;24.700;2023-03-21T03:29:08;13.90;;;7.80;;
56343;SDS011;42245;42.058;24.700;2023-03-21T03:31:37;9.73;;;7.40;;
56343;SDS011;42245;42.058;24.700;2023-03-21T03:34:15;16.55;;;7.93;;
56343;SDS011;42245;42.058;24.700;2023-03-21T03:36:46;14.35;;;7.63;;
56343;SDS011;42245;42.058;24.700;2023-03-21T03:39:16;14.48;;;8.30;;
56343;SDS011;42245;42.058;24.700;2023-03-21T03:41:44;11.63;;;7.10;;
56343;SDS011;42245;42.058;24.700;2023-03-21T03:44:10;15.50;;;7.80;;
56343;SDS011;42245;42.058;24.700;2023-03-21T03:46:42;12.70;;;7.25;;
56343;SDS011;42245;42.058;24.700;2023-03-21T03:49:16;14.57;;;8.20;;
56343;SDS011;42245;42.058;24.700;2023-03-21T03:54:23;11.70;;;7.45;;
56343;SDS011;42245;42.058;24.700;2023-03-21T03:56:52;13.35;;;8.50;;
56343;SDS011;42245;42.058;24.700;2023-03-21T03:59:18;13.77;;;8.10;;
56343;SDS011;42245;42.058;24.700;2023-03-21T04:01:46;15.45;;;8.40;;
56343;SDS011;42245;42.058;24.700;2023-03-21T04:04:11;17.75;;;8.30;;
56343;SDS011;42245;42.058;24.700;2023-03-21T04:06:41;14.85;;;8.50;;
56343;SDS011;42245;42.058;24.700;2023-03-21T04:09:15;18.52;;;10.07;;
56343;SDS011;42245;42.058;24.700;2023-03-21T04:11:41;15.55;;;9.25;;
56343;SDS011;42245;42.058;24.700;2023-03-21T04:14:06;19.60;;;9.80;;
56343;SDS011;42245;42.058;24.700;2023-03-21T04:16:32;19.60;;;9.98;;
56343;SDS011;42245;42.058;24.700;2023-03-21T04:18:57;13.30;;;8.98;;
56343;SDS011;42245;42.058;24.700;2023-03-21T04:21:22;13.40;;;7.53;;
56343;SDS011;42245;42.058;24.700;2023-03-21T04:23:48;13.50;;;8.18;;
56343;SDS011;42245;42.058;24.700;2023-03-21T04:26:13;16.65;;;8.18;;
56343;SDS011;42245;42.058;24.700;2023-03-21T04:28:39;19.80;;;9.13;;
56343;SDS011;42245;42.058;24.700;2023-03-21T04:31:05;13.52;;;8.48;;
56343;SDS011;42245;42.058;24.700;2023-03-21T04:33:31;16.85;;;8.15;;
56343;SDS011;42245;42.058;24.700;2023-03-21T04:35:56;18.05;;;7.45;;
56343;SDS011;42245;42.058;24.700;2023-03-21T04:38:24;10.05;;;6.80;;
56343;SDS011;42245;42.058;24.700;2023-03-21T04:40:54;18.65;;;6.78;;
56343;SDS011;42245;42.058;24.700;2023-03-21T04:43:20;14.27;;;7.82;;
56343;SDS011;42245;42.058;24.700;2023-03-21T04:45:45;14.38;;;7.70;;
56343;SDS011;42245;42.058;24.700;2023-03-21T04:48:11;25.92;;;8.07;;
56343;SDS011;42245;42.058;24.700;2023-03-21T04:50:38;18.60;;;7.50;;
56343;SDS011;42245;42.058;24.700;2023-03-21T04:53:03;16.85;;;7.43;;
56343;SDS011;42245;42.058;24.700;2023-03-21T04:55:29;15.48;;;7.35;;
56343;SDS011;42245;42.058;24.700;2023-03-21T04:57:55;10.65;;;6.22;;
56343;SDS011;42245;42.058;24.700;2023-03-21T05:00:21;14.05;;;6.53;;
56343;SDS011;42245;42.058;24.700;2023-03-21T05:02:47;32.22;;;15.30;;
56343;SDS011;42245;42.058;24.700;2023-03-21T05:05:13;20.65;;;13.57;;
56343;SDS011;42245;42.058;24.700;2023-03-21T05:07:39;13.57;;;8.63;;
56343;SDS011;42245;42.058;24.700;2023-03-21T05:10:05;23.95;;;16.42;;
56343;SDS011;42245;42.058;24.700;2023-03-21T05:12:32;25.58;;;16.45;;
56343;SDS011;42245;42.058;24.700;2023-03-21T05:14:58;43.83;;;17.95;;
56343;SDS011;42245;42.058;24.700;2023-03-21T05:17:23;24.02;;;12.43;;
56343;SDS011;42245;42.058;24.700;2023-03-21T05:19:49;35.88;;;22.90;;
56343;SDS011;42245;42.058;24.700;2023-03-21T05:22:16;111.65;;;64.53;;
56343;SDS011;42245;42.058;24.700;2023-03-21T05:24:43;85.70;;;50.45;;
56343;SDS011;42245;42.058;24.700;2023-03-21T05:27:14;52.85;;;32.53;;
56343;SDS011;42245;42.058;24.700;2023-03-21T05:30:06;90.55;;;54.65;;
56343;SDS011;42245;42.058;24.700;2023-03-21T05:32:34;72.20;;;34.80;;
56343;SDS011;42245;42.058;24.700;2023-03-21T05:34:59;39.00;;;20.77;;
56343;SDS011;42245;42.058;24.700;2023-03-21T05:37:25;25.25;;;13.85;;
56343;SDS011;42245;42.058;24.700;2023-03-21T05:39:50;28.63;;;18.50;;
56343;SDS011;42245;42.058;24.700;2023-03-21T05:42:16;15.98;;;8.65;;
56343;SDS011;42245;42.058;24.700;2023-03-21T05:44:42;22.25;;;10.23;;
56343;SDS011;42245;42.058;24.700;2023-03-21T05:47:09;19.13;;;10.27;;
56343;SDS011;42245;42.058;24.700;2023-03-21T05:49:35;24.60;;;12.65;;
56343;SDS011;42245;42.058;24.700;2023-03-21T05:52:00;37.30;;;15.15;;
56343;SDS011;42245;42.058;24.700;2023-03-21T05:54:26;50.88;;;22.52;;
56343;SDS011;42245;42.058;24.700;2023-03-21T05:56:51;83.40;;;44.28;;
56343;SDS011;42245;42.058;24.700;2023-03-21T05:59:16;122.65;;;47.35;;
56343;SDS011;42245;42.058;24.700;2023-03-21T06:01:42;45.53;;;25.10;;
56343;SDS011;42245;42.058;24.700;2023-03-21T06:04:07;30.85;;;19.33;;
56343;SDS011;42245;42.058;24.700;2023-03-21T06:06:33;35.95;;;20.02;;
56343;SDS011;42245;42.058;24.700;2023-03-21T06:08:58;30.88;;;19.98;;
56343;SDS011;42245;42.058;24.700;2023-03-21T06:11:31;35.03;;;20.05;;
56343;SDS011;42245;42.058;24.700;2023-03-21T06:13:58;68.35;;;39.55;;
56343;SDS011;42245;42.058;24.700;2023-03-21T06:16:23;33.13;;;22.00;;
56343;SDS011;42245;42.058;24.700;2023-03-21T06:18:48;29.10;;;19.20;;
56343;SDS011;42245;42.058;24.700;2023-03-21T06:21:14;31.23;;;17.85;;
56343;SDS011;42245;42.058;24.700;2023-03-21T06:23:40;28.80;;;19.48;;
56343;SDS011;42245;42.058;24.700;2023-03-21T06:26:05;29.77;;;18.35;;
56343;SDS011;42245;42.058;24.700;2023-03-21T06:28:31;29.67;;;17.27;;
56343;SDS011;42245;42.058;24.700;2023-03-21T06:30:56;45.22;;;23.85;;
56343;SDS011;42245;42.058;24.700;2023-03-21T06:33:22;47.10;;;25.33;;
56343;SDS011;42245;42.058;24.700;2023-03-21T06:35:51;49.28;;;27.45;;
56343;SDS011;42245;42.058;24.700;2023-03-21T06:38:17;45.38;;;26.27;;
56343;SDS011;42245;42.058;24.700;2023-03-21T06:40:44;38.30;;;24.13;;
56343;SDS011;42245;42.058;24.700;2023-03-21T06:43:10;44.58;;;25.35;;
56343;SDS011;42245;42.058;24.700;2023-03-21T06:45:35;42.85;;;25.88;;
56343;SDS011;42245;42.058;24.700;2023-03-21T06:48:00;39.67;;;24.75;;
56343;SDS011;42245;42.058;24.700;2023-03-21T06:50:26;37.20;;;23.15;;
56343;SDS011;42245;42.058;24.700;2023-03-21T06:52:51;42.22;;;22.30;;
56343;SDS011;42245;42.058;24.700;2023-03-21T06:55:17;35.67;;;21.60;;
56343;SDS011;42245;42.058;24.700;2023-03-21T06:57:43;36.10;;;21.42;;
56343;SDS011;42245;42.058;24.700;2023-03-21T07:00:09;42.20;;;24.65;;
56343;SDS011;42245;42.058;24.700;2023-03-21T07:02:35;41.45;;;23.55;;
56343;SDS011;42245;42.058;24.700;2023-03-21T07:05:01;36.45;;;24.17;;
56343;SDS011;42245;42.058;24.700;2023-03-21T07:07:27;42.60;;;24.63;;
56343;SDS011;42245;42.058;24.700;2023-03-21T07:09:53;42.38;;;25.95;;
56343;SDS011;42245;42.058;24.700;2023-03-21T07:12:20;43.03;;;26.52;;
56343;SDS011;42245;42.058;24.700;2023-03-21T07:14:47;49.38;;;23.58;;
56343;SDS011;42245;42.058;24.700;2023-03-21T07:17:12;40.80;;;24.17;;
56343;SDS011;42245;42.058;24.700;2023-03-21T07:19:38;39.33;;;24.48;;
56343;SDS011;42245;42.058;24.700;2023-03-21T07:22:03;37.63;;;23.90;;
56343;SDS011;42245;42.058;24.700;2023-03-21T07:24:28;39.88;;;24.45;;
56343;SDS011;42245;42.058;24.700;2023-03-21T07:26:54;43.28;;;24.55;;
56343;SDS011;42245;42.058;24.700;2023-03-21T07:29:20;39.38;;;25.35;;
56343;SDS011;42245;42.058;24.700;2023-03-21T07:31:47;40.47;;;26.02;;
56343;SDS011;42245;42.058;24.700;2023-03-21T07:34:13;42.58;;;25.48;;
56343;SDS011;42245;42.058;24.700;2023-03-21T07:36:40;42.72;;;24.30;;
56343;SDS011;42245;42.058;24.700;2023-03-21T07:39:06;35.70;;;23.13;;
56343;SDS011;42245;42.058;24.700;2023-03-21T07:41:31;45.03;;;23.33;;
56343;SDS011;42245;42.058;24.700;2023-03-21T07:43:57;43.00;;;22.55;;
56343;SDS011;42245;42.058;24.700;2023-03-21T07:46:22;44.83;;;25.00;;
56343;SDS011;42245;42.058;24.700;2023-03-21T07:48:48;37.15;;;23.05;;
56343;SDS011;42245;42.058;24.700;2023-03-21T07:51:13;49.28;;;24.25;;
56343;SDS011;42245;42.058;24.700;2023-03-21T07:53:38;37.85;;;21.70;;
56343;SDS011;42245;42.058;24.700;2023-03-21T07:56:05;41.25;;;23.98;;
56343;SDS011;42245;42.058;24.700;2023-03-21T07:58:31;38.13;;;21.27;;
56343;SDS011;42245;42.058;24.700;2023-03-21T08:00:59;30.27;;;19.60;;
56343;SDS011;42245;42.058;24.700;2023-03-21T08:03:26;33.50;;;21.23;;
56343;SDS011;42245;42.058;24.700;2023-03-21T08:05:53;35.72;;;21.33;;
56343;SDS011;42245;42.058;24.700;2023-03-21T08:08:19;31.88;;;22.15;;
56343;SDS011;42245;42.058;24.700;2023-03-21T08:10:44;35.47;;;21.70;;
56343;SDS011;42245;42.058;24.700;2023-03-21T08:13:10;40.28;;;21.42;;
56343;SDS011;42245;42.058;24.700;2023-03-21T08:15:35;35.92;;;20.90;;
56343;SDS011;42245;42.058;24.700;2023-03-21T08:18:01;29.95;;;17.27;;
56343;SDS011;42245;42.058;24.700;2023-03-21T08:20:27;24.92;;;15.57;;
56343;SDS011;42245;42.058;24.700;2023-03-21T08:22:52;31.52;;;16.98;;
56343;SDS011;42245;42.058;24.700;2023-03-21T08:25:19;31.40;;;17.90;;
56343;SDS011;42245;42.058;24.700;2023-03-21T08:27:45;31.45;;;18.42;;
56343;SDS011;42245;42.058;24.700;2023-03-21T08:30:13;31.30;;;16.85;;
56343;SDS011;42245;42.058;24.700;2023-03-21T08:32:40;35.17;;;17.42;;
56343;SDS011;42245;42.058;24.700;2023-03-21T08:35:07;34.92;;;17.92;;
56343;SDS011;42245;42.058;24.700;2023-03-21T08:37:34;31.77;;;17.02;;
56343;SDS011;42245;42.058;24.700;2023-03-21T08:40:04;30.98;;;15.75;;
56343;SDS011;42245;42.058;24.700;2023-03-21T08:42:35;30.73;;;17.13;;
56343;SDS011;42245;42.058;24.700;2023-03-21T08:45:01;31.73;;;19.35;;
56343;SDS011;42245;42.058;24.700;2023-03-21T08:47:26;31.77;;;19.50;;
56343;SDS011;42245;42.058;24.700;2023-03-21T08:49:52;38.33;;;20.02;;
56343;SDS011;42245;42.058;24.700;2023-03-21T08:52:17;49.00;;;24.30;;
56343;SDS011;42245;42.058;24.700;2023-03-21T08:54:42;37.95;;;18.60;;
56343;SDS011;42245;42.058;24.700;2023-03-21T08:57:09;30.70;;;17.77;;
56343;SDS011;42245;42.058;24.700;2023-03-21T08:59:35;29.42;;;18.35;;
56343;SDS011;42245;42.058;24.700;2023-03-21T09:02:01;32.13;;;17.52;;
56343;SDS011;42245;42.058;24.700;2023-03-21T09:04:27;29.52;;;17.85;;
56343;SDS011;42245;42.058;24.700;2023-03-21T09:06:54;29.52;;;17.35;;
56343;SDS011;42245;42.058;24.700;2023-03-21T09:09:20;34.90;;;16.98;;
56343;SDS011;42245;42.058;24.700;2023-03-21T09:11:45;109.80;;;21.20;;
56343;SDS011;42245;42.058;24.700;2023-03-21T09:14:11;36.72;;;21.23;;
56343;SDS011;42245;42.058;24.700;2023-03-21T09:16:36;29.42;;;17.95;;
56343;SDS011;42245;42.058;24.700;2023-03-21T09:19:02;36.53;;;20.67;;
56343;SDS011;42245;42.058;24.700;2023-03-21T09:21:28;30.90;;;17.92;;
56343;SDS011;42245;42.058;24.700;2023-03-21T09:23:54;30.83;;;17.25;;
56343;SDS011;42245;42.058;24.700;2023-03-21T09:26:22;35.83;;;19.10;;
56343;SDS011;42245;42.058;24.700;2023-03-21T09:28:49;31.55;;;17.52;;
56343;SDS011;42245;42.058;24.700;2023-03-21T09:31:15;30.13;;;17.92;;
56343;SDS011;42245;42.058;24.700;2023-03-21T09:33:45;26.15;;;17.48;;
56343;SDS011;42245;42.058;24.700;2023-03-21T09:36:11;32.25;;;16.75;;
56343;SDS011;42245;42.058;24.700;2023-03-21T09:38:42;28.60;;;17.30;;
56343;SDS011;42245;42.058;24.700;2023-03-21T09:47:08;29.05;;;16.17;;
56343;SDS011;42245;42.058;24.700;2023-03-21T09:49:46;25.02;;;15.65;;
56343;SDS011;42245;42.058;24.700;2023-03-21T09:52:21;34.85;;;17.75;;
56343;SDS011;42245;42.058;24.700;2023-03-21T09:54:51;28.08;;;15.75;;
56343;SDS011;42245;42.058;24.700;2023-03-21T09:59:52;26.10;;;16.40;;
56343;SDS011;42245;42.058;24.700;2023-03-21T10:02:20;28.05;;;15.43;;
56343;SDS011;42245;42.058;24.700;2023-03-21T10:05:14;27.00;;;17.13;;
56343;SDS011;42245;42.058;24.700;2023-03-21T10:07:43;28.75;;;15.38;;
56343;SDS011;42245;42.058;24.700;2023-03-21T10:10:16;27.05;;;15.32;;
56343;SDS011;42245;42.058;24.700;2023-03-21T10:12:45;29.75;;;15.73;;
56343;SDS011;42245;42.058;24.700;2023-03-21T10:15:15;26.65;;;15.43;;
56343;SDS011;42245;42.058;24.700;2023-03-21T10:17:42;33.88;;;17.15;;
56343;SDS011;42245;42.058;24.700;2023-03-21T10:22:42;28.05;;;16.77;;
56343;SDS011;42245;42.058;24.700;2023-03-21T10:25:11;29.13;;;16.50;;
56343;SDS011;42245;42.058;24.700;2023-03-21T10:27:39;29.05;;;17.95;;
56343;SDS011;42245;42.058;24.700;2023-03-21T10:30:05;31.65;;;17.70;;
56343;SDS011;42245;42.058;24.700;2023-03-21T10:32:32;29.73;;;17.00;;
56343;SDS011;42245;42.058;24.700;2023-03-21T10:34:58;32.75;;;16.95;;
56343;SDS011;42245;42.058;24.700;2023-03-21T10:37:24;30.38;;;16.88;;
56343;SDS011;42245;42.058;24.700;2023-03-21T10:39:50;27.35;;;16.13;;
56343;SDS011;42245;42.058;24.700;2023-03-21T10:44:46;24.90;;;16.13;;
56343;SDS011;42245;42.058;24.700;2023-03-21T10:47:16;28.38;;;16.15;;
56343;SDS011;42245;42.058;24.700;2023-03-21T10:49:45;43.20;;;19.48;;
56343;SDS011;42245;42.058;24.700;2023-03-21T10:52:11;33.65;;;19.90;;
56343;SDS011;42245;42.058;24.700;2023-03-21T10:54:38;24.50;;;16.55;;
56343;SDS011;42245;42.058;24.700;2023-03-21T10:59:40;31.08;;;17.75;;
56343;SDS011;42245;42.058;24.700;2023-03-21T11:02:15;30.83;;;18.83;;
56343;SDS011;42245;42.058;24.700;2023-03-21T11:04:55;28.33;;;17.27;;
56343;SDS011;42245;42.058;24.700;2023-03-21T11:07:22;25.48;;;16.88;;
56343;SDS011;42245;42.058;24.700;2023-03-21T11:09:56;27.63;;;15.25;;
56343;SDS011;42245;42.058;24.700;2023-03-21T11:12:30;31.70;;;16.70;;
56343;SDS011;42245;42.058;24.700;2023-03-21T11:17:38;25.52;;;14.60;;
56343;SDS011;42245;42.058;24.700;2023-03-21T11:20:05;27.33;;;17.23;;
56343;SDS011;42245;42.058;24.700;2023-03-21T11:22:40;27.30;;;16.42;;
56343;SDS011;42245;42.058;24.700;2023-03-21T11:25:08;21.77;;;13.65;;
56343;SDS011;42245;42.058;24.700;2023-03-21T11:27:36;29.13;;;14.50;;
56343;SDS011;42245;42.058;24.700;2023-03-21T11:30:17;27.40;;;14.43;;
56343;SDS011;42245;42.058;24.700;2023-03-21T11:32:45;27.83;;;14.55;;
56343;SDS011;42245;42.058;24.700;2023-03-21T11:35:19;52.15;;;15.88;;
56343;SDS011;42245;42.058;24.700;2023-03-21T11:37:49;27.75;;;16.70;;
56343;SDS011;42245;42.058;24.700;2023-03-21T11:45:20;20.85;;;11.85;;
56343;SDS011;42245;42.058;24.700;2023-03-21T11:47:46;17.98;;;10.85;;
56343;SDS011;42245;42.058;24.700;2023-03-21T11:52:42;18.70;;;10.50;;
56343;SDS011;42245;42.058;24.700;2023-03-21T11:55:21;19.90;;;11.35;;
56343;SDS011;42245;42.058;24.700;2023-03-21T11:57:55;19.60;;;10.90;;
56343;SDS011;42245;42.058;24.700;2023-03-21T12:00:33;21.50;;;11.10;;
56343;SDS011;42245;42.058;24.700;2023-03-21T12:03:46;24.02;;;10.95;;
56343;SDS011;42245;42.058;24.700;2023-03-21T12:06:04;21.67;;;10.43;;
56343;SDS011;42245;42.058;24.700;2023-03-21T12:11:25;21.35;;;11.05;;
56343;SDS011;42245;42.058;24.700;2023-03-21T12:25:45;18.13;;;10.77;;
56343;SDS011;42245;42.058;24.700;2023-03-21T12:28:23;16.48;;;11.73;;
56343;SDS011;42245;42.058;24.700;2023-03-21T12:41:49;25.50;;;14.70;;
56343;SDS011;42245;42.058;24.700;2023-03-21T12:44:21;24.45;;;14.27;;
56343;SDS011;42245;42.058;24.700;2023-03-21T12:46:56;33.05;;;17.27;;
56343;SDS011;42245;42.058;24.700;2023-03-21T12:52:07;22.15;;;14.30;;
56343;SDS011;42245;42.058;24.700;2023-03-21T12:54:47;29.27;;;16.88;;
56343;SDS011;42245;42.058;24.700;2023-03-21T12:57:15;39.38;;;18.90;;
56343;SDS011;42245;42.058;24.700;2023-03-21T12:59:58;47.40;;;20.05;;
56343;SDS011;42245;42.058;24.700;2023-03-21T13:02:28;54.80;;;19.02;;
56343;SDS011;42245;42.058;24.700;2023-03-21T13:07:44;34.42;;;20.90;;
56343;SDS011;42245;42.058;24.700;2023-03-21T13:10:14;34.13;;;18.52;;
56343;SDS011;42245;42.058;24.700;2023-03-21T13:15:54;27.77;;;16.52;;
56343;SDS011;42245;42.058;24.700;2023-03-21T13:21:08;31.58;;;17.38;;
56343;SDS011;42245;42.058;24.700;2023-03-21T13:23:37;36.17;;;17.27;;
56343;SDS011;42245;42.058;24.700;2023-03-21T13:26:06;36.17;;;19.52;;
56343;SDS011;42245;42.058;24.700;2023-03-21T13:28:35;31.77;;;16.13;;
56343;SDS011;42245;42.058;24.700;2023-03-21T13:33:52;28.10;;;14.38;;
56343;SDS011;42245;42.058;24.700;2023-03-21T13:36:23;23.27;;;14.10;;
56343;SDS011;42245;42.058;24.700;2023-03-21T13:38:50;22.75;;;13.73;;
56343;SDS011;42245;42.058;24.700;2023-03-21T13:41:17;20.40;;;12.77;;
56343;SDS011;42245;42.058;24.700;2023-03-21T13:49:12;26.75;;;13.23;;
56343;SDS011;42245;42.058;24.700;2023-03-21T13:51:49;29.08;;;15.15;;
56343;SDS011;42245;42.058;24.700;2023-03-21T13:54:17;23.52;;;12.27;;
56343;SDS011;42245;42.058;24.700;2023-03-21T13:59:11;28.55;;;16.58;;
56343;SDS011;42245;42.058;24.700;2023-03-21T14:02:17;31.75;;;16.40;;
56343;SDS011;42245;42.058;24.700;2023-03-21T14:04:43;45.75;;;15.40;;
56343;SDS011;42245;42.058;24.700;2023-03-21T14:07:20;34.25;;;14.85;;
56343;SDS011;42245;42.058;24.700;2023-03-21T14:09:51;33.75;;;17.67;;
56343;SDS011;42245;42.058;24.700;2023-03-21T14:12:19;28.60;;;16.75;;
56343;SDS011;42245;42.058;24.700;2023-03-21T14:14:49;25.73;;;15.90;;
56343;SDS011;42245;42.058;24.700;2023-03-21T14:17:47;22.10;;;14.02;;
56343;SDS011;42245;42.058;24.700;2023-03-21T14:22:51;20.75;;;13.40;;
56343;SDS011;42245;42.058;24.700;2023-03-21T14:25:18;30.15;;;13.55;;
56343;SDS011;42245;42.058;24.700;2023-03-21T14:27:48;27.85;;;14.00;;
56343;SDS011;42245;42.058;24.700;2023-03-21T14:33:14;26.73;;;15.68;;
56343;SDS011;42245;42.058;24.700;2023-03-21T14:35:44;22.45;;;12.10;;
56343;SDS011;42245;42.058;24.700;2023-03-21T14:38:24;26.52;;;13.93;;
56343;SDS011;42245;42.058;24.700;2023-03-21T14:40:52;27.15;;;14.38;;
56343;SDS011;42245;42.058;24.700;2023-03-21T14:43:20;21.45;;;14.13;;
56343;SDS011;42245;42.058;24.700;2023-03-21T14:45:47;28.15;;;15.15;;
56343;SDS011;42245;42.058;24.700;2023-03-21T14:48:17;21.05;;;14.43;;
56343;SDS011;42245;42.058;24.700;2023-03-21T14:53:16;52.58;;;25.63;;
56343;SDS011;42245;42.058;24.700;2023-03-21T14:55:45;42.20;;;21.30;;
56343;SDS011;42245;42.058;24.700;2023-03-21T14:58:12;49.85;;;23.33;;
56343;SDS011;42245;42.058;24.700;2023-03-21T15:00:40;42.20;;;18.27;;
56343;SDS011;42245;42.058;24.700;2023-03-21T15:03:05;37.15;;;16.30;;
56343;SDS011;42245;42.058;24.700;2023-03-21T15:05:32;26.50;;;15.70;;
56343;SDS011;42245;42.058;24.700;2023-03-21T15:08:02;31.13;;;15.93;;
56343;SDS011;42245;42.058;24.700;2023-03-21T15:10:32;55.78;;;18.38;;
56343;SDS011;42245;42.058;24.700;2023-03-21T15:13:09;31.08;;;17.58;;
56343;SDS011;42245;42.058;24.700;2023-03-21T15:15:40;35.95;;;16.70;;
56343;SDS011;42245;42.058;24.700;2023-03-21T15:18:06;34.97;;;16.15;;
56343;SDS011;42245;42.058;24.700;2023-03-21T15:20:34;47.92;;;16.88;;
56343;SDS011;42245;42.058;24.700;2023-03-21T15:23:02;33.83;;;15.00;;
56343;SDS011;42245;42.058;24.700;2023-03-21T15:25:31;26.15;;;15.25;;
56343;SDS011;42245;42.058;24.700;2023-03-21T15:27:59;40.97;;;15.20;;
56343;SDS011;42245;42.058;24.700;2023-03-21T15:30:26;40.45;;;16.27;;
56343;SDS011;42245;42.058;24.700;2023-03-21T15:32:56;27.58;;;18.42;;
56343;SDS011;42245;42.058;24.700;2023-03-21T15:35:33;30.63;;;17.02;;
56343;SDS011;42245;42.058;24.700;2023-03-21T15:38:03;31.40;;;15.50;;
56343;SDS011;42245;42.058;24.700;2023-03-21T15:40:30;30.95;;;15.20;;
56343;SDS011;42245;42.058;24.700;2023-03-21T15:43:12;63.60;;;16.60;;
56343;SDS011;42245;42.058;24.700;2023-03-21T15:45:47;28.42;;;15.20;;
56343;SDS011;42245;42.058;24.700;2023-03-21T15:48:15;33.60;;;15.18;;
56343;SDS011;42245;42.058;24.700;2023-03-21T15:50:41;32.20;;;17.13;;
56343;SDS011;42245;42.058;24.700;2023-03-21T15:53:13;37.15;;;17.40;;
56343;SDS011;42245;42.058;24.700;2023-03-21T15:58:13;55.05;;;16.42;;
56343;SDS011;42245;42.058;24.700;2023-03-21T16:00:43;30.00;;;15.77;;
56343;SDS011;42245;42.058;24.700;2023-03-21T16:03:23;33.85;;;14.93;;
56343;SDS011;42245;42.058;24.700;2023-03-21T16:13:50;66.78;;;15.50;;
56343;SDS011;42245;42.058;24.700;2023-03-21T16:16:21;39.63;;;14.27;;
56343;SDS011;42245;42.058;24.700;2023-03-21T16:18:48;45.28;;;20.95;;
56343;SDS011;42245;42.058;24.700;2023-03-21T16:21:16;32.08;;;15.57;;
56343;SDS011;42245;42.058;24.700;2023-03-21T16:23:43;43.87;;;20.83;;
56343;SDS011;42245;42.058;24.700;2023-03-21T16:26:10;31.17;;;14.45;;
56343;SDS011;42245;42.058;24.700;2023-03-21T16:28:40;27.55;;;15.57;;
56343;SDS011;42245;42.058;24.700;2023-03-21T16:31:08;36.38;;;14.45;;
56343;SDS011;42245;42.058;24.700;2023-03-21T16:33:36;42.13;;;13.98;;
56343;SDS011;42245;42.058;24.700;2023-03-21T16:36:01;34.90;;;13.18;;
56343;SDS011;42245;42.058;24.700;2023-03-21T16:38:26;26.45;;;13.63;;
56343;SDS011;42245;42.058;24.700;2023-03-21T16:40:52;35.05;;;19.77;;
56343;SDS011;42245;42.058;24.700;2023-03-21T16:43:17;25.63;;;13.65;;
56343;SDS011;42245;42.058;24.700;2023-03-21T16:45:43;29.77;;;14.20;;
56343;SDS011;42245;42.058;24.700;2023-03-21T16:48:09;27.05;;;13.98;;
56343;SDS011;42245;42.058;24.700;2023-03-21T16:50:40;48.55;;;24.65;;
56343;SDS011;42245;42.058;24.700;2023-03-21T16:53:06;26.83;;;13.35;;
56343;SDS011;42245;42.058;24.700;2023-03-21T16:55:32;27.98;;;13.13;;
56343;SDS011;42245;42.058;24.700;2023-03-21T16:57:58;22.70;;;13.20;;
56343;SDS011;42245;42.058;24.700;2023-03-21T17:00:25;28.73;;;12.95;;
56343;SDS011;42245;42.058;24.700;2023-03-21T17:02:52;21.13;;;12.15;;
56343;SDS011;42245;42.058;24.700;2023-03-21T17:05:19;24.58;;;13.02;;
56343;SDS011;42245;42.058;24.700;2023-03-21T17:07:45;25.80;;;13.30;;
56343;SDS011;42245;42.058;24.700;2023-03-21T17:12:47;24.00;;;13.50;;
56343;SDS011;42245;42.058;24.700;2023-03-21T17:15:13;28.75;;;12.95;;
56343;SDS011;42245;42.058;24.700;2023-03-21T17:17:39;21.77;;;12.73;;
56343;SDS011;42245;42.058;24.700;2023-03-21T17:20:50;22.67;;;12.95;;
56343;SDS011;42245;42.058;24.700;2023-03-21T17:22:57;24.27;;;13.63;;
56343;SDS011;42245;42.058;24.700;2023-03-21T17:25:23;23.38;;;12.73;;
56343;SDS011;42245;42.058;24.700;2023-03-21T17:27:49;24.33;;;13.85;;
56343;SDS011;42245;42.058;24.700;2023-03-21T17:30:31;25.35;;;12.88;;
56343;SDS011;42245;42.058;24.700;2023-03-21T17:32:58;24.30;;;13.30;;
56343;SDS011;42245;42.058;24.700;2023-03-21T17:35:24;27.85;;;12.48;;
56343;SDS011;42245;42.058;24.700;2023-03-21T17:37:50;75.43;;;33.85;;
56343;SDS011;42245;42.058;24.700;2023-03-21T17:40:18;122.45;;;54.55;;
56343;SDS011;42245;42.058;24.700;2023-03-21T17:42:48;76.95;;;36.05;;
56343;SDS011;42245;42.058;24.700;2023-03-21T17:45:15;52.55;;;23.58;;
56343;SDS011;42245;42.058;24.700;2023-03-21T17:47:40;31.08;;;13.93;;
56343;SDS011;42245;42.058;24.700;2023-03-21T17:50:30;26.92;;;14.02;;
56343;SDS011;42245;42.058;24.700;2023-03-21T17:52:54;24.25;;;15.65;;
56343;SDS011;42245;42.058;24.700;2023-03-21T17:55:21;25.17;;;14.80;;
56343;SDS011;42245;42.058;24.700;2023-03-21T17:57:47;55.45;;;30.08;;
56343;SDS011;42245;42.058;24.700;2023-03-21T18:00:14;32.25;;;18.40;;
56343;SDS011;42245;42.058;24.700;2023-03-21T18:02:43;25.70;;;14.68;;
56343;SDS011;42245;42.058;24.700;2023-03-21T18:05:09;61.50;;;32.25;;
56343;SDS011;42245;42.058;24.700;2023-03-21T18:07:35;26.50;;;15.43;;
56343;SDS011;42245;42.058;24.700;2023-03-21T18:10:01;61.53;;;30.88;;
56343;SDS011;42245;42.058;24.700;2023-03-21T18:12:27;49.38;;;24.92;;
56343;SDS011;42245;42.058;24.700;2023-03-21T18:14:53;31.63;;;15.73;;
56343;SDS011;42245;42.058;24.700;2023-03-21T18:17:18;35.35;;;17.85;;
56343;SDS011;42245;42.058;24.700;2023-03-21T18:19:45;142.63;;;70.75;;
56343;SDS011;42245;42.058;24.700;2023-03-21T18:22:11;41.90;;;22.27;;
56343;SDS011;42245;42.058;24.700;2023-03-21T18:24:37;29.65;;;16.75;;
56343;SDS011;42245;42.058;24.700;2023-03-21T18:27:03;30.88;;;15.85;;
56343;SDS011;42245;42.058;24.700;2023-03-21T18:29:28;33.80;;;15.30;;
56343;SDS011;42245;42.058;24.700;2023-03-21T18:31:55;31.80;;;16.10;;
56343;SDS011;42245;42.058;24.700;2023-03-21T18:34:24;25.42;;;15.45;;
56343;SDS011;42245;42.058;24.700;2023-03-21T18:36:51;29.67;;;16.33;;
56343;SDS011;42245;42.058;24.700;2023-03-21T18:39:17;28.20;;;17.15;;
56343;SDS011;42245;42.058;24.700;2023-03-21T18:41:43;31.58;;;19.65;;
56343;SDS011;42245;42.058;24.700;2023-03-21T18:44:08;37.20;;;19.58;;
56343;SDS011;42245;42.058;24.700;2023-03-21T18:46:34;33.72;;;17.55;;
56343;SDS011;42245;42.058;24.700;2023-03-21T18:49:00;29.00;;;16.60;;
56343;SDS011;42245;42.058;24.700;2023-03-21T18:51:26;26.55;;;16.58;;
56343;SDS011;42245;42.058;24.700;2023-03-21T18:53:51;28.90;;;17.52;;
56343;SDS011;42245;42.058;24.700;2023-03-21T18:56:16;34.35;;;17.05;;
56343;SDS011;42245;42.058;24.700;2023-03-21T18:58:42;30.90;;;17.63;;
56343;SDS011;42245;42.058;24.700;2023-03-21T19:01:08;30.90;;;18.70;;